createdAt,value
2023-05-13T00:01:24.426Z,3.10
2023-05-13T00:03:52.418Z,3.10
2023-05-13T00:06:20.487Z,3.20
2023-05-13T00:08:48.591Z,2.90
2023-05-13T00:11:17.994Z,3.50
2023-05-13T00:13:45.976Z,3.10
2023-05-13T00:16:13.984Z,3.00
2023-05-13T00:18:42.012Z,3.37
2023-05-13T00:21:10.412Z,2.90
2023-05-13T00:23:38.513Z,3.50
2023-05-13T00:26:07.899Z,3.23
2023-05-13T00:28:39.554Z,3.40
2023-05-13T00:31:07.690Z,3.20
2023-05-13T00:33:35.689Z,3.50
2023-05-13T00:36:03.975Z,3.50
2023-05-13T00:38:32.109Z,3.87
2023-05-13T00:41:00.170Z,3.70
2023-05-13T00:43:28.213Z,3.50
2023-05-13T00:45:57.994Z,4.10
2023-05-13T00:48:26.251Z,3.57
2023-05-13T00:50:54.315Z,3.50
2023-05-13T00:53:22.738Z,3.73
2023-05-13T00:55:50.782Z,3.53
2023-05-13T00:58:18.956Z,3.57
2023-05-13T01:00:54.844Z,3.67
2023-05-13T01:03:29.800Z,4.00
2023-05-13T01:06:07.073Z,3.40
2023-05-13T01:08:43.937Z,3.23
2023-05-13T01:11:18.467Z,4.10
2023-05-13T01:13:50.314Z,4.00
2023-05-13T01:16:23.210Z,4.27
2023-05-13T01:18:58.333Z,4.90
2023-05-13T01:21:37.493Z,4.60
2023-05-13T01:24:06.820Z,4.87
2023-05-13T01:26:34.857Z,5.03
2023-05-13T01:29:03.100Z,5.03
2023-05-13T01:31:31.367Z,4.73
2023-05-13T01:34:00.101Z,5.07
2023-05-13T01:36:29.599Z,5.30
2023-05-13T01:38:58.272Z,5.60
2023-05-13T01:41:26.494Z,5.60
2023-05-13T01:43:54.568Z,5.30
2023-05-13T01:46:22.590Z,5.17
2023-05-13T01:48:52.204Z,5.47
2023-05-13T01:51:20.183Z,5.60
2023-05-13T01:53:49.524Z,6.03
2023-05-13T01:56:17.523Z,5.27
2023-05-13T01:58:46.272Z,5.43
2023-05-13T02:01:15.596Z,5.87
2023-05-13T02:03:45.284Z,5.33
2023-05-13T02:06:13.353Z,5.73
2023-05-13T02:08:41.579Z,5.50
2023-05-13T02:11:10.950Z,5.43
2023-05-13T02:13:38.842Z,6.23
2023-05-13T02:16:07.435Z,5.67
2023-05-13T02:18:38.277Z,6.40
2023-05-13T02:21:06.691Z,6.67
2023-05-13T02:23:34.688Z,6.63
2023-05-13T02:26:02.866Z,7.07
2023-05-13T02:28:32.330Z,6.33
2023-05-13T02:31:00.655Z,6.93
2023-05-13T02:33:30.772Z,7.27
2023-05-13T02:36:00.378Z,7.27
2023-05-13T02:38:28.474Z,7.17
2023-05-13T02:40:56.533Z,6.87
2023-05-13T02:43:24.968Z,6.70
2023-05-13T02:45:54.594Z,6.77
2023-05-13T02:48:22.613Z,6.80
2023-05-13T02:50:51.335Z,6.63
2023-05-13T02:53:19.304Z,7.20
2023-05-13T02:55:47.448Z,6.70
2023-05-13T02:58:15.428Z,6.73
2023-05-13T03:00:44.094Z,6.37
2023-05-13T03:03:16.264Z,5.83
2023-05-13T03:05:44.338Z,5.97
2023-05-13T03:08:13.862Z,5.80
2023-05-13T03:10:41.952Z,5.33
2023-05-13T03:13:09.959Z,5.37
2023-05-13T03:15:37.946Z,5.67
2023-05-13T03:18:06.125Z,5.03
2023-05-13T03:20:37.885Z,5.20
2023-05-13T03:23:06.172Z,5.27
2023-05-13T03:25:37.127Z,5.20
2023-05-13T03:28:08.297Z,5.50
2023-05-13T03:30:36.394Z,5.37
2023-05-13T03:33:04.826Z,5.77
2023-05-13T03:35:33.333Z,5.73
2023-05-13T03:38:02.712Z,6.10
2023-05-13T03:40:30.739Z,5.87
2023-05-13T03:43:06.121Z,5.50
2023-05-13T03:45:34.108Z,5.70
2023-05-13T03:48:02.408Z,5.53
2023-05-13T03:50:30.416Z,5.57
2023-05-13T03:52:58.436Z,5.90
2023-05-13T03:55:29.275Z,5.63
2023-05-13T03:57:57.786Z,5.97
2023-05-13T04:00:25.974Z,5.87
2023-05-13T04:02:56.975Z,5.93
2023-05-13T04:05:27.224Z,5.87
2023-05-13T04:07:55.154Z,6.30
2023-05-13T04:10:23.642Z,5.87
2023-05-13T04:12:53.609Z,6.10
2023-05-13T04:15:21.676Z,5.77
2023-05-13T04:17:49.694Z,6.30
2023-05-13T04:20:17.840Z,5.70
2023-05-13T04:22:45.765Z,6.33
2023-05-13T04:25:14.071Z,7.03
2023-05-13T04:27:42.078Z,6.60
2023-05-13T04:30:12.486Z,6.17
2023-05-13T04:32:41.643Z,6.70
2023-05-13T04:35:10.180Z,6.60
2023-05-13T04:37:38.534Z,6.60
2023-05-13T04:40:09.542Z,6.40
2023-05-13T04:42:37.529Z,6.37
2023-05-13T04:45:06.822Z,6.50
2023-05-13T04:47:38.194Z,6.20
2023-05-13T04:50:07.670Z,6.20
2023-05-13T04:52:37.332Z,6.20
2023-05-13T04:55:08.349Z,5.43
2023-05-13T04:57:40.162Z,6.43
2023-05-13T05:00:09.566Z,6.33
2023-05-13T05:02:38.924Z,5.63
2023-05-13T05:05:11.607Z,5.83
2023-05-13T05:07:40.604Z,6.00
2023-05-13T05:10:09.636Z,5.43
2023-05-13T05:12:38.227Z,5.40
2023-05-13T05:15:11.430Z,5.57
2023-05-13T05:17:41.556Z,5.67
2023-05-13T05:20:11.421Z,5.27
2023-05-13T05:22:41.674Z,5.63
2023-05-13T05:25:10.650Z,5.73
2023-05-13T05:27:42.817Z,5.27
2023-05-13T05:32:57.259Z,5.20
2023-05-13T05:35:26.114Z,5.60
2023-05-13T05:37:56.457Z,5.47
2023-05-13T05:40:24.824Z,5.50
2023-05-13T05:42:52.793Z,5.60
2023-05-13T05:45:20.747Z,5.07
2023-05-13T05:47:48.668Z,5.67
2023-05-13T05:50:18.091Z,5.97
2023-05-13T05:52:46.156Z,5.50
2023-05-13T05:55:14.193Z,5.90
2023-05-13T05:57:42.213Z,5.13
2023-05-13T06:00:11.445Z,5.77
2023-05-13T06:02:39.491Z,5.90
2023-05-13T06:05:08.901Z,5.70
2023-05-13T06:07:38.189Z,5.93
2023-05-13T06:10:08.229Z,6.07
2023-05-13T06:12:36.385Z,6.13
2023-05-13T06:15:06.458Z,5.40
2023-05-13T06:17:34.553Z,5.47
2023-05-13T06:20:02.546Z,5.73
2023-05-13T06:22:30.545Z,5.60
2023-05-13T06:24:59.903Z,5.60
2023-05-13T06:27:27.863Z,6.37
2023-05-13T06:29:56.173Z,5.33
2023-05-13T06:32:24.107Z,5.47
2023-05-13T06:34:54.520Z,6.30
2023-05-13T06:37:23.759Z,6.33
2023-05-13T06:39:51.900Z,6.03
2023-05-13T06:42:21.192Z,5.53
2023-05-13T06:44:49.203Z,5.23
2023-05-13T06:47:17.175Z,5.80
2023-05-13T06:49:45.133Z,5.40
2023-05-13T06:52:13.064Z,5.93
2023-05-13T06:54:41.214Z,5.60
2023-05-13T06:57:09.931Z,5.83
2023-05-13T06:59:41.296Z,5.80
2023-05-13T07:02:11.243Z,5.67
2023-05-13T07:04:39.256Z,5.33
2023-05-13T07:07:07.219Z,5.50
2023-05-13T07:09:35.487Z,5.40
2023-05-13T07:12:03.552Z,5.77
2023-05-13T07:14:36.026Z,5.30
2023-05-13T07:17:06.147Z,5.30
2023-05-13T07:19:34.198Z,5.50
2023-05-13T07:22:02.092Z,5.57
2023-05-13T07:24:32.211Z,5.97
2023-05-13T07:27:03.996Z,5.97
2023-05-13T07:29:49.101Z,6.40
2023-05-13T07:32:18.573Z,5.70
2023-05-13T07:34:46.622Z,6.20
2023-05-13T07:37:15.051Z,6.33
2023-05-13T07:39:46.885Z,5.87
2023-05-13T07:42:15.280Z,5.70
2023-05-13T07:44:44.025Z,5.70
2023-05-13T07:47:13.682Z,6.27
2023-05-13T07:49:44.087Z,5.90
2023-05-13T07:52:12.127Z,6.27
2023-05-13T07:54:40.151Z,6.00
2023-05-13T07:57:08.224Z,6.00
2023-05-13T07:59:37.764Z,6.03
2023-05-13T08:02:06.016Z,6.13
2023-05-13T08:04:34.068Z,5.67
2023-05-13T08:07:03.607Z,6.07
2023-05-13T08:09:32.794Z,6.37
2023-05-13T08:12:00.815Z,6.43
2023-05-13T08:14:30.845Z,6.47
2023-05-13T08:16:59.065Z,6.00
2023-05-13T08:19:27.122Z,6.00
2023-05-13T08:21:55.538Z,6.60
2023-05-13T08:24:24.885Z,6.23
2023-05-13T08:26:52.910Z,6.40
2023-05-13T08:29:20.868Z,6.87
2023-05-13T08:31:48.862Z,6.10
2023-05-13T08:34:17.022Z,6.57
2023-05-13T08:36:45.001Z,6.87
2023-05-13T08:39:16.213Z,6.70
2023-05-13T08:41:47.278Z,6.57
2023-05-13T08:44:16.164Z,6.10
2023-05-13T08:46:53.800Z,6.20
2023-05-13T08:49:22.176Z,7.13
2023-05-13T08:51:50.892Z,6.77
2023-05-13T08:54:20.677Z,6.47
2023-05-13T08:56:58.892Z,6.83
2023-05-13T08:59:29.167Z,6.13
2023-05-13T09:02:00.253Z,7.00
2023-05-13T09:04:28.480Z,7.60
2023-05-13T09:06:57.801Z,7.03
2023-05-13T09:09:25.936Z,6.63
2023-05-13T09:11:55.989Z,6.87
2023-05-13T09:14:32.742Z,6.73
2023-05-13T09:17:02.260Z,6.93
2023-05-13T09:19:31.984Z,6.70
2023-05-13T09:22:00.453Z,6.70
2023-05-13T09:24:28.847Z,7.27
2023-05-13T09:27:00.276Z,6.77
2023-05-13T09:29:29.533Z,6.73
2023-05-13T09:31:59.218Z,6.57
2023-05-13T09:34:30.154Z,6.30
2023-05-13T09:37:05.740Z,6.90
2023-05-13T09:39:38.398Z,6.93
2023-05-13T09:42:17.080Z,6.53
2023-05-13T09:44:45.970Z,6.23
2023-05-13T09:47:15.185Z,6.00
2023-05-13T09:49:45.194Z,6.50
2023-05-13T09:52:17.810Z,6.50
2023-05-13T09:54:45.963Z,6.13
2023-05-13T09:57:16.294Z,6.77
2023-05-13T09:59:44.281Z,6.40
2023-05-13T10:02:16.437Z,6.00
2023-05-13T10:04:44.535Z,6.23
2023-05-13T10:07:13.252Z,6.70
2023-05-13T10:09:44.571Z,5.80
2023-05-13T10:12:17.293Z,6.43
2023-05-13T10:14:45.770Z,5.23
2023-05-13T10:17:14.508Z,6.13
2023-05-13T10:19:43.811Z,6.30
2023-05-13T10:22:14.557Z,5.90
2023-05-13T10:24:43.796Z,5.93
2023-05-13T10:27:13.569Z,5.53
2023-05-13T10:29:46.773Z,5.10
2023-05-13T10:32:18.366Z,5.63
2023-05-13T10:34:48.556Z,5.53
2023-05-13T10:37:54.730Z,5.57
2023-05-13T10:41:01.075Z,5.33
2023-05-13T10:43:30.090Z,5.70
2023-05-13T10:46:01.553Z,5.43
2023-05-13T10:48:40.836Z,5.70
2023-05-13T10:51:08.970Z,4.93
2023-05-13T10:53:46.493Z,5.37
2023-05-13T10:56:15.228Z,5.30
2023-05-13T10:58:43.334Z,4.87
2023-05-13T11:01:17.658Z,5.53
2023-05-13T11:03:56.772Z,5.60
2023-05-13T11:06:31.833Z,5.80
2023-05-13T11:09:01.015Z,5.70
2023-05-13T11:11:33.259Z,5.47
2023-05-13T11:14:20.989Z,5.43
2023-05-13T11:16:55.453Z,5.13
2023-05-13T11:19:27.169Z,5.77
2023-05-13T11:21:57.350Z,6.60
2023-05-13T11:24:27.437Z,6.60
2023-05-13T11:26:59.546Z,5.80
2023-05-13T11:29:32.339Z,5.90
2023-05-13T11:32:03.005Z,6.13
2023-05-13T11:34:35.218Z,5.33
2023-05-13T11:37:12.768Z,6.07
2023-05-13T11:39:42.163Z,6.43
2023-05-13T11:42:11.657Z,7.63
2023-05-13T11:44:52.681Z,6.73
2023-05-13T11:47:29.990Z,5.83
2023-05-13T11:49:59.080Z,6.00
2023-05-13T11:52:29.756Z,6.17
2023-05-13T11:55:02.405Z,6.53
2023-05-13T11:57:32.678Z,6.40
2023-05-13T12:00:09.424Z,6.33
2023-05-13T12:02:41.599Z,6.83
2023-05-13T12:05:19.129Z,6.73
2023-05-13T12:07:47.358Z,6.53
2023-05-13T12:10:15.556Z,6.13
2023-05-13T12:12:46.665Z,6.67
2023-05-13T12:15:17.354Z,6.13
2023-05-13T12:17:48.084Z,5.70
2023-05-13T12:20:17.519Z,5.70
2023-05-13T12:22:53.765Z,6.90
2023-05-13T12:25:51.293Z,6.00
2023-05-13T12:28:20.849Z,5.60
2023-05-13T12:30:53.714Z,6.53
2023-05-13T12:33:24.638Z,5.73
2023-05-13T12:35:53.938Z,6.30
2023-05-13T12:38:24.149Z,6.93
2023-05-13T12:40:53.120Z,6.63
2023-05-13T12:43:21.594Z,6.47
2023-05-13T12:45:54.869Z,5.67
2023-05-13T12:48:26.870Z,5.90
2023-05-13T12:50:56.386Z,6.57
2023-05-13T12:53:24.520Z,5.73
2023-05-13T12:55:52.579Z,5.37
2023-05-13T12:58:20.534Z,5.77
2023-05-13T13:00:48.537Z,6.30
2023-05-13T13:03:16.599Z,6.63
2023-05-13T13:05:46.789Z,6.20
2023-05-13T13:08:14.756Z,5.97
2023-05-13T13:10:42.813Z,6.77
2023-05-13T13:13:10.853Z,6.17
2023-05-13T13:15:43.115Z,6.20
2023-05-13T13:18:11.153Z,7.43
2023-05-13T13:20:39.248Z,5.90
2023-05-13T13:23:09.999Z,6.73
2023-05-13T13:25:38.082Z,6.03
2023-05-13T13:28:06.378Z,6.47
2023-05-13T13:30:34.287Z,5.97
2023-05-13T13:33:03.100Z,6.20
2023-05-13T13:35:31.244Z,6.83
2023-05-13T13:38:01.700Z,7.03
2023-05-13T13:40:33.539Z,6.57
2023-05-13T13:43:01.556Z,6.57
2023-05-13T13:45:30.498Z,5.90
2023-05-13T13:48:00.371Z,6.33
2023-05-13T13:50:29.100Z,6.80
2023-05-13T13:52:57.086Z,7.10
2023-05-13T13:55:25.740Z,7.40
2023-05-13T13:57:55.348Z,6.87
2023-05-13T14:00:23.621Z,7.00
2023-05-13T14:02:51.897Z,7.20
2023-05-13T14:05:21.885Z,11.10
2023-05-13T14:07:53.752Z,8.47
2023-05-13T14:10:22.040Z,7.87
2023-05-13T14:12:51.273Z,7.93
2023-05-13T14:15:22.621Z,8.10
2023-05-13T14:17:50.801Z,7.63
2023-05-13T14:20:18.954Z,7.60
2023-05-13T14:22:47.188Z,7.47
2023-05-13T14:25:15.407Z,7.77
2023-05-13T14:27:45.701Z,8.13
2023-05-13T14:30:14.107Z,7.50
2023-05-13T14:32:45.182Z,7.30
2023-05-13T14:35:14.471Z,8.47
2023-05-13T14:37:42.660Z,7.90
2023-05-13T14:40:11.401Z,8.10
2023-05-13T14:42:39.379Z,7.37
2023-05-13T14:45:10.858Z,7.60
2023-05-13T14:47:40.495Z,7.70
2023-05-13T14:50:12.217Z,7.13
2023-05-13T14:52:40.359Z,6.67
2023-05-13T14:55:08.749Z,7.07
2023-05-13T14:57:36.720Z,6.83
2023-05-13T15:00:05.507Z,6.90
2023-05-13T15:02:33.495Z,7.27
2023-05-13T15:05:01.504Z,7.13
2023-05-13T15:07:30.954Z,6.77
2023-05-13T15:09:59.796Z,6.73
2023-05-13T15:12:27.763Z,7.37
2023-05-13T15:15:02.223Z,6.87
2023-05-13T15:17:30.484Z,6.53
2023-05-13T15:20:02.522Z,7.20
2023-05-13T15:22:42.656Z,6.43
2023-05-13T15:25:14.337Z,6.73
2023-05-13T15:27:42.986Z,6.63
2023-05-13T15:30:13.982Z,6.63
2023-05-13T15:32:42.189Z,6.90
2023-05-13T15:35:11.042Z,6.63
2023-05-13T15:37:50.928Z,6.50
2023-05-13T15:40:23.651Z,6.40
2023-05-13T15:42:52.038Z,6.80
2023-05-13T15:45:20.621Z,6.80
2023-05-13T15:47:48.718Z,6.50
2023-05-13T15:50:17.020Z,6.90
2023-05-13T15:52:47.000Z,6.77
2023-05-13T15:55:14.933Z,7.10
2023-05-13T15:57:42.958Z,8.03
2023-05-13T16:00:14.220Z,7.23
2023-05-13T16:02:44.058Z,7.27
2023-05-13T16:05:15.291Z,7.10
2023-05-13T16:07:44.587Z,6.83
2023-05-13T16:10:15.261Z,7.53
2023-05-13T16:12:43.403Z,7.20
2023-05-13T16:15:12.227Z,6.67
2023-05-13T16:17:40.294Z,7.10
2023-05-13T16:20:19.284Z,6.67
2023-05-13T16:22:47.307Z,7.10
2023-05-13T16:25:18.070Z,6.83
2023-05-13T16:27:46.059Z,6.90
2023-05-13T16:30:17.867Z,6.47
2023-05-13T16:32:48.820Z,6.97
2023-05-13T16:35:16.896Z,6.27
2023-05-13T16:37:47.514Z,7.27
2023-05-13T16:40:19.045Z,6.10
2023-05-13T16:42:47.365Z,7.03
2023-05-13T16:45:15.289Z,6.93
2023-05-13T16:47:43.488Z,6.60
2023-05-13T16:50:11.909Z,6.33
2023-05-13T16:52:40.137Z,6.87
2023-05-13T16:55:09.670Z,6.43
2023-05-13T16:57:39.226Z,6.53
2023-05-13T17:00:08.433Z,6.90
2023-05-13T17:02:37.619Z,6.80
2023-05-13T17:05:06.404Z,7.03
2023-05-13T17:07:37.800Z,6.47
2023-05-13T17:10:10.216Z,6.90
2023-05-13T17:12:40.586Z,6.60
2023-05-13T17:15:13.330Z,6.73
2023-05-13T17:17:41.871Z,8.27
2023-05-13T17:20:12.867Z,6.40
2023-05-13T17:22:44.411Z,13.60
2023-05-13T17:25:12.359Z,6.53
2023-05-13T17:27:46.835Z,6.13
2023-05-13T17:30:16.049Z,6.03
2023-05-13T17:32:44.468Z,6.10
2023-05-13T17:35:12.674Z,5.97
2023-05-13T17:37:40.786Z,5.87
2023-05-13T17:40:10.704Z,5.83
2023-05-13T17:42:39.014Z,6.17
2023-05-13T17:45:09.872Z,5.73
2023-05-13T17:47:38.054Z,5.50
2023-05-13T17:50:06.998Z,5.37
2023-05-13T17:52:35.021Z,6.00
2023-05-13T17:55:03.034Z,6.60
2023-05-13T17:57:31.907Z,6.30
2023-05-13T17:59:59.857Z,6.17
2023-05-13T18:02:32.201Z,6.40
2023-05-13T18:05:01.680Z,6.03
2023-05-13T18:07:29.760Z,6.33
2023-05-13T18:09:57.752Z,6.47
2023-05-13T18:12:28.324Z,7.20
2023-05-13T18:14:57.344Z,8.73
2023-05-13T18:17:25.433Z,8.57
2023-05-13T18:19:54.707Z,20.93
2023-05-13T18:22:22.971Z,8.30
2023-05-13T18:24:51.013Z,8.80
2023-05-13T18:27:19.541Z,6.87
2023-05-13T18:29:47.619Z,7.80
2023-05-13T18:32:15.646Z,7.20
2023-05-13T18:34:43.729Z,7.47
2023-05-13T18:37:13.228Z,6.80
2023-05-13T18:39:41.762Z,8.43
2023-05-13T18:42:09.926Z,6.60
2023-05-13T18:44:38.747Z,8.03
2023-05-13T18:47:07.448Z,7.10
2023-05-13T18:49:35.926Z,6.40
2023-05-13T18:52:04.118Z,7.07
2023-05-13T18:54:33.525Z,6.60
2023-05-13T18:57:01.822Z,6.47
2023-05-13T18:59:29.968Z,7.30
2023-05-13T19:01:58.966Z,7.97
2023-05-13T19:04:27.563Z,6.50
2023-05-13T19:06:56.979Z,6.57
2023-05-13T19:09:25.272Z,7.43
2023-05-13T19:11:54.789Z,6.50
2023-05-13T19:14:22.853Z,7.43
2023-05-13T19:16:53.306Z,6.50
2023-05-13T19:19:21.214Z,6.90
2023-05-13T19:21:52.407Z,6.97
2023-05-13T19:24:21.813Z,7.80
2023-05-13T19:26:49.855Z,6.90
2023-05-13T19:29:19.316Z,7.30
2023-05-13T19:31:47.421Z,7.43
2023-05-13T19:34:15.771Z,6.93
2023-05-13T19:36:45.681Z,6.73
2023-05-13T19:39:13.729Z,7.00
2023-05-13T19:41:41.716Z,7.10
2023-05-13T19:44:09.780Z,7.07
2023-05-13T19:46:39.128Z,6.73
2023-05-13T19:49:07.710Z,6.67
2023-05-13T19:51:35.800Z,7.03
2023-05-13T19:54:03.866Z,6.83
2023-05-13T19:56:31.931Z,7.70
2023-05-13T19:58:59.882Z,6.33
2023-05-13T20:01:27.810Z,7.07
2023-05-13T20:03:57.220Z,7.10
2023-05-13T20:06:26.203Z,7.40
2023-05-13T20:08:54.279Z,7.20
2023-05-13T20:11:22.500Z,7.60
2023-05-13T20:13:50.508Z,7.50
2023-05-13T20:16:22.118Z,7.40
2023-05-13T20:18:50.313Z,7.70
2023-05-13T20:21:19.599Z,6.93
2023-05-13T20:23:47.578Z,7.30
2023-05-13T20:26:15.552Z,6.80
2023-05-13T20:28:45.588Z,6.37
2023-05-13T20:31:13.583Z,6.23
2023-05-13T20:33:41.841Z,5.87
2023-05-13T20:36:09.877Z,5.40
2023-05-13T20:38:39.177Z,5.27
2023-05-13T20:41:07.158Z,5.00
2023-05-13T20:43:35.969Z,5.03
2023-05-13T20:46:04.319Z,5.80
2023-05-13T20:48:33.907Z,5.40
2023-05-13T20:51:04.845Z,5.33
2023-05-13T20:53:33.718Z,5.87
2023-05-13T20:56:04.779Z,6.07
2023-05-13T20:58:33.045Z,6.97
2023-05-13T21:01:01.445Z,7.70
2023-05-13T21:03:29.562Z,8.00
2023-05-13T21:05:57.633Z,7.57
2023-05-13T21:08:25.668Z,7.27
2023-05-13T21:10:56.197Z,7.63
2023-05-13T21:13:26.723Z,6.97
2023-05-13T21:15:55.624Z,7.17
2023-05-13T21:18:24.130Z,8.33
2023-05-13T21:20:52.862Z,8.97
2023-05-13T21:23:20.857Z,9.20
2023-05-13T21:25:48.992Z,10.13
2023-05-13T21:28:17.645Z,9.57
2023-05-13T21:30:47.072Z,9.97
2023-05-13T21:33:16.772Z,9.87
2023-05-13T21:35:44.725Z,10.17
2023-05-13T21:38:12.933Z,9.97
2023-05-13T21:40:41.014Z,10.33
2023-05-13T21:43:09.040Z,10.33
2023-05-13T21:45:37.242Z,10.07
2023-05-13T21:48:07.312Z,10.07
2023-05-13T21:50:35.615Z,10.03
2023-05-13T21:53:04.459Z,9.07
2023-05-13T21:55:35.180Z,9.10
2023-05-13T21:58:03.237Z,9.10
2023-05-13T22:00:31.549Z,9.17
2023-05-13T22:03:00.395Z,9.07
2023-05-13T22:05:30.056Z,8.57
2023-05-13T22:08:00.178Z,9.33
2023-05-13T22:10:28.291Z,8.83
2023-05-13T22:12:56.337Z,8.10
2023-05-13T22:15:24.299Z,7.80
2023-05-13T22:17:52.677Z,8.30
2023-05-13T22:20:21.174Z,8.67
2023-05-13T22:22:50.667Z,7.87
2023-05-13T22:25:18.680Z,8.37
2023-05-13T22:27:48.668Z,7.70
2023-05-13T22:30:16.898Z,7.53
2023-05-13T22:32:45.212Z,7.77
2023-05-13T22:35:13.152Z,8.07
2023-05-13T22:37:41.191Z,8.00
2023-05-13T22:40:12.273Z,8.57
2023-05-13T22:42:40.305Z,8.13
2023-05-13T22:45:09.352Z,8.07
2023-05-13T22:47:37.608Z,8.40
2023-05-13T22:50:06.251Z,8.10
2023-05-13T22:52:34.177Z,9.33
2023-05-13T22:55:02.460Z,8.97
2023-05-13T22:57:31.738Z,8.70
2023-05-13T22:59:59.672Z,9.20
2023-05-13T23:02:27.679Z,9.67
2023-05-13T23:04:55.699Z,8.83
2023-05-13T23:07:23.636Z,8.70
2023-05-13T23:09:51.686Z,9.20
2023-05-13T23:12:20.996Z,8.80
2023-05-13T23:14:50.342Z,9.10
2023-05-13T23:17:19.152Z,9.43
2023-05-13T23:19:47.099Z,9.93
2023-05-13T23:22:15.090Z,8.97
2023-05-13T23:24:43.015Z,9.10
2023-05-13T23:27:11.624Z,8.73
2023-05-13T23:29:39.618Z,9.27
2023-05-13T23:32:11.593Z,9.00
2023-05-13T23:34:39.592Z,8.97
2023-05-13T23:37:07.748Z,8.93
2023-05-13T23:39:36.044Z,9.20
2023-05-13T23:42:04.294Z,8.63
2023-05-13T23:44:33.173Z,8.80
2023-05-13T23:47:01.160Z,8.77
2023-05-13T23:49:30.696Z,8.43
2023-05-13T23:51:58.675Z,9.00
2023-05-13T23:54:26.835Z,8.83
2023-05-13T23:56:54.838Z,9.03
2023-05-13T23:59:22.854Z,9.20
